Time;durP1;ratioP1;P1;durP2;ratioP2;P2;SDS_P1;SDS_P2;PMS_P1;PMS_P2;Temp;Humidity;BMP_temperature;BMP_pressure;BME280_temperature;BME280_humidity;BME280_pressure;Samples;Min_cycle;Max_cycle;Signal;HPM_P1;HPM_P2
2021/08/30 00:00:42;;;;;;;12.30;5.15;;;;;;;;;;5054466;28;20036;-75
2021/08/30 00:03:08;;;;;;;9.55;5.40;;;;;;;;;;5054642;28;20037;-75
2021/08/30 00:05:33;;;;;;;7.07;4.55;;;;;;;;;;5054873;28;20078;-75
2021/08/30 00:07:58;;;;;;;9.73;4.85;;;;;;;;;;5054803;28;20017;-75
2021/08/30 00:10:24;;;;;;;9.52;4.45;;;;;;;;;;5054149;28;20477;-75
2021/08/30 00:12:49;;;;;;;9.13;4.72;;;;;;;;;;5054275;28;20078;-75
2021/08/30 00:15:15;;;;;;;7.55;4.32;;;;;;;;;;5046124;28;20187;-76
2021/08/30 00:17:41;;;;;;;7.40;4.32;;;;;;;;;;5045005;28;20040;-75
2021/08/30 00:20:07;;;;;;;8.30;4.82;;;;;;;;;;5054684;28;20028;-76
2021/08/30 00:22:33;;;;;;;39.10;5.38;;;;;;;;;;5054978;28;20021;-76
2021/08/30 00:24:58;;;;;;;9.05;4.38;;;;;;;;;;5054688;28;20067;-76
2021/08/30 00:27:23;;;;;;;8.48;4.43;;;;;;;;;;5054606;28;20061;-75
2021/08/30 00:29:48;;;;;;;7.97;4.85;;;;;;;;;;5054308;28;20055;-75
2021/08/30 00:32:14;;;;;;;9.48;4.60;;;;;;;;;;5054226;28;20047;-75
2021/08/30 00:34:39;;;;;;;11.27;4.30;;;;;;;;;;5051573;28;20106;-77
2021/08/30 00:37:05;;;;;;;7.82;4.15;;;;;;;;;;5035908;28;20017;-73
2021/08/30 00:39:32;;;;;;;9.30;4.28;;;;;;;;;;5054326;28;20025;-74
2021/08/30 00:41:57;;;;;;;8.88;4.10;;;;;;;;;;5054082;28;20029;-75
2021/08/30 00:44:23;;;;;;;6.25;3.60;;;;;;;;;;5054158;28;20116;-77
2021/08/30 00:46:49;;;;;;;9.50;4.38;;;;;;;;;;5054034;28;20033;-76
2021/08/30 00:49:14;;;;;;;10.20;4.13;;;;;;;;;;5054109;28;20048;-75
2021/08/30 00:51:40;;;;;;;10.18;4.05;;;;;;;;;;5054072;28;20476;-76
2021/08/30 00:54:06;;;;;;;9.63;3.50;;;;;;;;;;5053856;28;20095;-75
2021/08/30 00:56:31;;;;;;;8.95;4.88;;;;;;;;;;5054008;28;20475;-75
2021/08/30 00:58:56;;;;;;;8.00;4.30;;;;;;;;;;5053812;28;20124;-75
2021/08/30 01:01:22;;;;;;;8.98;4.00;;;;;;;;;;5053902;28;20024;-75
2021/08/30 01:03:48;;;;;;;8.02;3.95;;;;;;;;;;5053922;28;20468;-75
2021/08/30 01:06:32;;;;;;;8.38;3.80;;;;;;;;;;5053800;28;20100;-75
2021/08/30 01:09:13;;;;;;;7.88;3.88;;;;;;;;;;5053540;28;20518;-74
2021/08/30 01:11:42;;;;;;;6.53;3.25;;;;;;;;;;5053406;28;20405;-74
2021/08/30 01:14:09;;;;;;;9.30;3.70;;;;;;;;;;5053712;28;20063;-75
2021/08/30 01:16:36;;;;;;;6.00;3.28;;;;;;;;;;5053626;28;20033;-75
2021/08/30 01:19:03;;;;;;;8.93;3.42;;;;;;;;;;5053472;28;20035;-75
2021/08/30 01:21:31;;;;;;;7.88;3.70;;;;;;;;;;5053869;28;20086;-77
2021/08/30 01:23:56;;;;;;;10.68;3.25;;;;;;;;;;5053378;28;20033;-75
2021/08/30 01:26:24;;;;;;;7.15;2.67;;;;;;;;;;5053592;28;20075;-75
2021/08/30 01:29:01;;;;;;;7.43;3.35;;;;;;;;;;5052614;28;20063;-75
2021/08/30 01:31:30;;;;;;;6.68;2.90;;;;;;;;;;5040181;28;20543;-75
2021/08/30 01:33:55;;;;;;;7.88;2.80;;;;;;;;;;5053350;28;20033;-75
2021/08/30 01:36:22;;;;;;;10.70;3.88;;;;;;;;;;5053030;28;20064;-75
2021/08/30 01:38:48;;;;;;;8.95;3.60;;;;;;;;;;5053174;28;20025;-76
2021/08/30 01:41:17;;;;;;;7.07;3.40;;;;;;;;;;5053155;28;20025;-76
2021/08/30 01:43:44;;;;;;;7.55;2.90;;;;;;;;;;5053286;28;20029;-75
2021/08/30 01:46:10;;;;;;;7.95;3.22;;;;;;;;;;5052765;28;20100;-76
2021/08/30 01:48:36;;;;;;;8.73;3.00;;;;;;;;;;5048154;28;20529;-75
2021/08/30 01:51:01;;;;;;;12.55;3.50;;;;;;;;;;5052782;28;20355;-75
2021/08/30 01:53:27;;;;;;;9.02;3.50;;;;;;;;;;5052899;28;20477;-75
2021/08/30 01:55:57;;;;;;;5.68;2.63;;;;;;;;;;5053321;28;20431;-75
2021/08/30 02:00:52;;;;;;;7.07;3.83;;;;;;;;;;5052382;28;20032;-75
2021/08/30 02:03:24;;;;;;;12.23;3.95;;;;;;;;;;5052521;28;20021;-75
2021/08/30 02:05:51;;;;;;;9.35;4.18;;;;;;;;;;5035133;28;20432;-75
2021/08/30 02:08:16;;;;;;;11.48;4.32;;;;;;;;;;5056161;28;20711;-76
2021/08/30 02:10:46;;;;;;;10.68;4.90;;;;;;;;;;5056869;28;20068;-74
2021/08/30 02:13:14;;;;;;;9.57;3.45;;;;;;;;;;5056962;28;20033;-74
2021/08/30 02:15:40;;;;;;;9.10;4.13;;;;;;;;;;5056831;28;20029;-75
2021/08/30 02:18:26;;;;;;;11.63;3.70;;;;;;;;;;5056581;28;20025;-75
2021/08/30 02:20:54;;;;;;;9.63;3.20;;;;;;;;;;5016157;28;20049;-75
2021/08/30 02:23:22;;;;;;;12.00;3.45;;;;;;;;;;5056419;28;20021;-75
2021/08/30 02:25:49;;;;;;;6.65;3.20;;;;;;;;;;5056367;28;20036;-75
2021/08/30 02:28:14;;;;;;;7.53;3.20;;;;;;;;;;5056393;28;20026;-75
2021/08/30 02:30:40;;;;;;;6.97;3.22;;;;;;;;;;5056135;28;20048;-75
2021/08/30 02:33:08;;;;;;;12.18;3.80;;;;;;;;;;5056345;28;20388;-75
2021/08/30 02:35:34;;;;;;;7.10;3.72;;;;;;;;;;5055738;28;20044;-76
2021/08/30 02:38:00;;;;;;;8.60;3.17;;;;;;;;;;5056379;28;20457;-75
2021/08/30 02:40:27;;;;;;;11.45;3.47;;;;;;;;;;5055371;28;20095;-75
2021/08/30 02:42:54;;;;;;;6.55;3.50;;;;;;;;;;5050386;28;20036;-75
2021/08/30 02:45:19;;;;;;;8.25;3.58;;;;;;;;;;5056351;28;20017;-75
2021/08/30 02:47:45;;;;;;;12.05;3.50;;;;;;;;;;5055783;28;20040;-75
2021/08/30 02:50:11;;;;;;;9.73;3.30;;;;;;;;;;5056156;28;20029;-75
2021/08/30 02:52:40;;;;;;;8.43;4.03;;;;;;;;;;5056417;28;20086;-75
2021/08/30 02:55:05;;;;;;;8.50;3.55;;;;;;;;;;5055991;28;20102;-75
2021/08/30 02:57:32;;;;;;;14.70;3.67;;;;;;;;;;5055883;28;20029;-76
2021/08/30 02:59:57;;;;;;;7.65;3.75;;;;;;;;;;5055772;28;20024;-75
2021/08/30 03:02:23;;;;;;;9.82;3.60;;;;;;;;;;5055827;28;20021;-75
2021/08/30 03:04:48;;;;;;;8.32;3.60;;;;;;;;;;5055966;28;20041;-75
2021/08/30 03:07:14;;;;;;;9.93;3.90;;;;;;;;;;5055883;28;20100;-75
2021/08/30 03:09:40;;;;;;;9.50;4.00;;;;;;;;;;5055512;28;20033;-74
2021/08/30 03:12:10;;;;;;;8.18;3.65;;;;;;;;;;5055906;28;20025;-74
2021/08/30 03:14:37;;;;;;;5.82;3.38;;;;;;;;;;5037669;28;20079;-76
2021/08/30 03:17:04;;;;;;;12.18;4.10;;;;;;;;;;5055902;28;20488;-76
2021/08/30 03:19:30;;;;;;;6.25;3.45;;;;;;;;;;5054780;28;20063;-75
2021/08/30 03:21:55;;;;;;;7.32;4.20;;;;;;;;;;5055805;28;20099;-74
2021/08/30 03:24:21;;;;;;;6.57;3.60;;;;;;;;;;5055522;28;20457;-75
2021/08/30 03:26:48;;;;;;;8.63;4.90;;;;;;;;;;5055594;28;20523;-75
2021/08/30 03:29:14;;;;;;;8.77;4.60;;;;;;;;;;5055316;28;20536;-75
2021/08/30 03:31:40;;;;;;;8.65;3.88;;;;;;;;;;5055032;28;20473;-75
2021/08/30 03:34:06;;;;;;;8.45;3.83;;;;;;;;;;5055139;28;20021;-75
2021/08/30 03:36:31;;;;;;;7.22;3.60;;;;;;;;;;5055199;28;20054;-76
2021/08/30 03:38:57;;;;;;;6.72;4.10;;;;;;;;;;5054951;28;20083;-77
2021/08/30 03:41:24;;;;;;;6.60;3.75;;;;;;;;;;5054884;28;20032;-75
2021/08/30 03:43:50;;;;;;;10.98;4.10;;;;;;;;;;5055166;28;20033;-75
2021/08/30 03:46:15;;;;;;;8.82;4.35;;;;;;;;;;5055307;28;20029;-75
2021/08/30 03:48:41;;;;;;;9.23;3.92;;;;;;;;;;5054580;28;20504;-75
2021/08/30 03:51:08;;;;;;;13.82;3.85;;;;;;;;;;5055044;28;20082;-76
2021/08/30 03:53:34;;;;;;;7.72;4.45;;;;;;;;;;5054647;28;20032;-75
2021/08/30 03:56:00;;;;;;;7.47;4.13;;;;;;;;;;5054942;28;20029;-76
2021/08/30 03:58:26;;;;;;;9.50;4.82;;;;;;;;;;5055414;28;20453;-75
2021/08/30 04:00:52;;;;;;;10.90;4.60;;;;;;;;;;5054830;28;20029;-75
2021/08/30 04:03:18;;;;;;;10.55;5.32;;;;;;;;;;5054678;28;20032;-75
2021/08/30 04:05:44;;;;;;;9.73;3.92;;;;;;;;;;5054614;28;20473;-75
2021/08/30 04:08:09;;;;;;;10.52;4.63;;;;;;;;;;5054259;28;20061;-75
2021/08/30 04:10:35;;;;;;;9.48;4.13;;;;;;;;;;5054260;28;20061;-75
2021/08/30 04:13:01;;;;;;;8.18;4.45;;;;;;;;;;5036662;28;20014;-75
2021/08/30 04:15:27;;;;;;;8.32;4.25;;;;;;;;;;5051117;28;20040;-75
2021/08/30 04:17:53;;;;;;;14.50;4.35;;;;;;;;;;5054512;28;20029;-76
2021/08/30 04:20:18;;;;;;;8.40;4.13;;;;;;;;;;5054509;28;20469;-75
2021/08/30 04:22:44;;;;;;;9.15;4.07;;;;;;;;;;5053742;28;20044;-75
2021/08/30 04:25:09;;;;;;;8.13;4.60;;;;;;;;;;5054404;28;20032;-75
2021/08/30 04:27:34;;;;;;;9.88;3.55;;;;;;;;;;5031528;28;20404;-76
2021/08/30 04:30:00;;;;;;;10.60;4.07;;;;;;;;;;5049963;28;20037;-76
2021/08/30 04:32:25;;;;;;;7.13;4.07;;;;;;;;;;5052996;28;20045;-75
2021/08/30 04:34:50;;;;;;;7.38;4.00;;;;;;;;;;5052917;28;20420;-75
2021/08/30 04:37:16;;;;;;;8.45;4.60;;;;;;;;;;5052859;28;20098;-76
2021/08/30 04:39:42;;;;;;;9.20;4.20;;;;;;;;;;5048549;28;20155;-76
2021/08/30 04:42:08;;;;;;;7.85;4.85;;;;;;;;;;5053537;28;20021;-76
2021/08/30 04:44:33;;;;;;;7.43;4.03;;;;;;;;;;5053312;28;20513;-75
2021/08/30 04:46:59;;;;;;;10.85;4.75;;;;;;;;;;5053852;28;20029;-75
2021/08/30 04:49:25;;;;;;;8.02;5.28;;;;;;;;;;5053178;28;20470;-75
2021/08/30 04:51:50;;;;;;;12.25;5.55;;;;;;;;;;5052810;28;20033;-76
2021/08/30 04:54:19;;;;;;;10.52;5.18;;;;;;;;;;5053106;28;20424;-76
2021/08/30 04:56:44;;;;;;;8.88;5.25;;;;;;;;;;5020418;28;20094;-75
2021/08/30 04:59:10;;;;;;;9.20;5.07;;;;;;;;;;5053233;28;20461;-76
2021/08/30 05:01:35;;;;;;;9.15;5.45;;;;;;;;;;5052752;28;20028;-75
2021/08/30 05:04:00;;;;;;;10.57;6.10;;;;;;;;;;5053144;28;20025;-76
2021/08/30 05:06:25;;;;;;;9.30;5.38;;;;;;;;;;5052529;28;20150;-75
2021/08/30 05:08:51;;;;;;;11.07;5.70;;;;;;;;;;5052801;28;20108;-76
2021/08/30 05:11:16;;;;;;;9.23;5.75;;;;;;;;;;5052594;28;20017;-75
2021/08/30 05:13:41;;;;;;;13.98;6.03;;;;;;;;;;5040980;28;20030;-75
2021/08/30 05:16:06;;;;;;;10.30;5.57;;;;;;;;;;5048790;28;20394;-75
2021/08/30 05:18:32;;;;;;;8.63;6.10;;;;;;;;;;5036533;28;20147;-76
2021/08/30 05:20:57;;;;;;;22.00;6.28;;;;;;;;;;5053056;28;20033;-76
2021/08/30 05:23:22;;;;;;;9.02;5.20;;;;;;;;;;5053134;28;20028;-75
2021/08/30 05:25:47;;;;;;;8.07;5.20;;;;;;;;;;5052956;28;20104;-75
2021/08/30 05:28:13;;;;;;;11.10;5.38;;;;;;;;;;5052826;28;20032;-75
2021/08/30 05:30:39;;;;;;;13.63;5.72;;;;;;;;;;5051697;28;20452;-77
2021/08/30 05:33:04;;;;;;;8.63;5.30;;;;;;;;;;5052520;28;20029;-75
2021/08/30 05:35:30;;;;;;;7.60;5.65;;;;;;;;;;5052325;28;20041;-75
2021/08/30 05:37:55;;;;;;;7.93;4.50;;;;;;;;;;5052523;28;20055;-75
2021/08/30 05:40:21;;;;;;;10.77;5.13;;;;;;;;;;5051213;28;20053;-75
2021/08/30 05:42:46;;;;;;;7.53;4.78;;;;;;;;;;5047194;28;20032;-75
2021/08/30 05:45:11;;;;;;;11.68;5.35;;;;;;;;;;5052909;28;20127;-76
2021/08/30 05:47:36;;;;;;;10.73;5.13;;;;;;;;;;5051788;28;20028;-75
2021/08/30 05:50:02;;;;;;;9.23;4.88;;;;;;;;;;5052874;28;20035;-75
2021/08/30 05:52:27;;;;;;;7.80;4.88;;;;;;;;;;5051629;28;20032;-75
2021/08/30 05:54:52;;;;;;;8.10;5.10;;;;;;;;;;5053145;28;20025;-75
2021/08/30 05:57:18;;;;;;;9.57;4.88;;;;;;;;;;5052747;28;20033;-75
2021/08/30 05:59:43;;;;;;;8.23;4.75;;;;;;;;;;5052562;28;20034;-75
2021/08/30 06:02:10;;;;;;;10.95;4.65;;;;;;;;;;5051425;28;20014;-76
2021/08/30 06:04:35;;;;;;;9.15;4.60;;;;;;;;;;5031634;28;20064;-76
2021/08/30 06:07:01;;;;;;;9.25;4.78;;;;;;;;;;5052248;28;20531;-75
2021/08/30 06:09:27;;;;;;;6.95;4.40;;;;;;;;;;5052186;28;20028;-75
2021/08/30 06:11:53;;;;;;;9.88;5.30;;;;;;;;;;5045365;28;20029;-76
2021/08/30 06:14:18;;;;;;;7.68;4.43;;;;;;;;;;5051298;28;20063;-76
2021/08/30 06:16:43;;;;;;;7.88;4.40;;;;;;;;;;5051238;28;20100;-75
2021/08/30 06:19:08;;;;;;;8.60;4.00;;;;;;;;;;5052435;28;20039;-75
2021/08/30 06:21:34;;;;;;;9.32;4.38;;;;;;;;;;5044266;28;20025;-76
2021/08/30 06:23:59;;;;;;;7.95;4.50;;;;;;;;;;5052360;28;20029;-75
2021/08/30 06:26:24;;;;;;;7.63;4.32;;;;;;;;;;5052529;28;20139;-75
2021/08/30 06:28:49;;;;;;;10.75;4.68;;;;;;;;;;5052033;28;20091;-75
2021/08/30 06:31:15;;;;;;;6.30;3.90;;;;;;;;;;5052349;28;20067;-76
2021/08/30 06:33:40;;;;;;;9.43;4.13;;;;;;;;;;5052841;28;20047;-76
2021/08/30 06:36:05;;;;;;;8.20;3.95;;;;;;;;;;5052316;28;20029;-75
2021/08/30 06:38:31;;;;;;;7.85;4.18;;;;;;;;;;5052859;28;20469;-75
2021/08/30 06:40:56;;;;;;;10.82;4.90;;;;;;;;;;5052346;28;20040;-75
2021/08/30 06:43:21;;;;;;;7.68;3.50;;;;;;;;;;5052474;28;20066;-75
2021/08/30 06:45:47;;;;;;;9.38;4.53;;;;;;;;;;5052195;28;20024;-75
2021/08/30 06:48:12;;;;;;;9.77;4.30;;;;;;;;;;5052787;28;20373;-75
2021/08/30 06:50:37;;;;;;;7.15;4.00;;;;;;;;;;5053019;28;20033;-76
2021/08/30 06:53:02;;;;;;;12.85;4.20;;;;;;;;;;5054263;28;20064;-76
2021/08/30 06:55:28;;;;;;;6.45;3.78;;;;;;;;;;5056393;28;20047;-75
2021/08/30 06:57:53;;;;;;;6.22;3.88;;;;;;;;;;5056380;28;20079;-75
2021/08/30 07:00:18;;;;;;;10.05;4.00;;;;;;;;;;5056045;28;20021;-75
2021/08/30 07:02:44;;;;;;;10.88;4.70;;;;;;;;;;5055441;28;20082;-75
2021/08/30 07:05:10;;;;;;;6.20;3.38;;;;;;;;;;5055979;28;20079;-75
2021/08/30 07:07:35;;;;;;;7.90;3.88;;;;;;;;;;5055382;28;20013;-76
2021/08/30 07:10:00;;;;;;;7.47;3.55;;;;;;;;;;5055392;28;20033;-77
2021/08/30 07:12:26;;;;;;;5.07;2.90;;;;;;;;;;5056224;28;20025;-75
2021/08/30 07:14:51;;;;;;;14.38;3.65;;;;;;;;;;5037848;28;20121;-75
2021/08/30 07:17:16;;;;;;;6.47;3.55;;;;;;;;;;5055352;28;20032;-75
2021/08/30 07:19:41;;;;;;;8.93;4.00;;;;;;;;;;5055412;28;20536;-76
2021/08/30 07:22:07;;;;;;;6.47;3.80;;;;;;;;;;5037588;28;20457;-76
2021/08/30 07:24:32;;;;;;;8.65;3.60;;;;;;;;;;5038133;28;20538;-75
2021/08/30 07:26:58;;;;;;;8.10;3.90;;;;;;;;;;5055781;28;20119;-75
2021/08/30 07:29:23;;;;;;;10.65;3.65;;;;;;;;;;5055012;28;20078;-76
2021/08/30 07:31:48;;;;;;;8.63;4.05;;;;;;;;;;5055420;28;20393;-75
2021/08/30 07:34:14;;;;;;;5.97;3.45;;;;;;;;;;5055150;28;20469;-75
2021/08/30 07:36:39;;;;;;;7.60;4.45;;;;;;;;;;5054930;28;20393;-76
2021/08/30 07:39:04;;;;;;;7.47;4.05;;;;;;;;;;5055309;28;20040;-75
2021/08/30 07:41:30;;;;;;;9.90;3.90;;;;;;;;;;5054725;28;20453;-75
2021/08/30 07:43:57;;;;;;;8.73;3.75;;;;;;;;;;5055503;28;20070;-75
2021/08/30 07:46:22;;;;;;;8.73;3.63;;;;;;;;;;5055012;28;20064;-75
2021/08/30 07:48:48;;;;;;;8.25;3.80;;;;;;;;;;5055170;28;20052;-75
2021/08/30 07:51:13;;;;;;;5.47;3.50;;;;;;;;;;5055428;28;20020;-75
2021/08/30 07:53:40;;;;;;;5.72;3.35;;;;;;;;;;5054429;28;20057;-77
2021/08/30 07:56:05;;;;;;;6.90;3.53;;;;;;;;;;5054686;28;20025;-75
2021/08/30 07:58:30;;;;;;;8.95;3.65;;;;;;;;;;5054734;28;20103;-76
2021/08/30 08:00:56;;;;;;;6.65;3.55;;;;;;;;;;5054916;28;20036;-75
2021/08/30 08:03:21;;;;;;;6.60;3.10;;;;;;;;;;5055037;28;20366;-75
2021/08/30 08:05:46;;;;;;;6.53;3.35;;;;;;;;;;5054132;28;20017;-76
2021/08/30 08:08:11;;;;;;;6.80;3.30;;;;;;;;;;5055078;28;20025;-76
2021/08/30 08:10:37;;;;;;;5.13;2.92;;;;;;;;;;5054845;28;20412;-75
2021/08/30 08:13:02;;;;;;;5.22;3.05;;;;;;;;;;5054654;28;20025;-76
2021/08/30 08:15:28;;;;;;;8.38;3.25;;;;;;;;;;5054041;28;20102;-75
2021/08/30 08:17:53;;;;;;;8.57;3.45;;;;;;;;;;5054145;28;20049;-76
2021/08/30 08:20:18;;;;;;;6.18;3.22;;;;;;;;;;5054437;28;20024;-76
2021/08/30 08:22:44;;;;;;;8.23;3.22;;;;;;;;;;5055060;28;20043;-76
2021/08/30 08:25:10;;;;;;;5.05;2.95;;;;;;;;;;5053809;28;20017;-75
2021/08/30 08:27:36;;;;;;;8.07;3.40;;;;;;;;;;5054222;28;20025;-75
2021/08/30 08:30:02;;;;;;;7.90;3.55;;;;;;;;;;5053989;28;20450;-75
2021/08/30 08:32:27;;;;;;;4.65;3.00;;;;;;;;;;5053555;28;20115;-76
2021/08/30 08:34:52;;;;;;;11.77;3.88;;;;;;;;;;5054390;28;20084;-76
2021/08/30 08:37:18;;;;;;;6.55;3.05;;;;;;;;;;5054070;28;20033;-75
2021/08/30 08:39:44;;;;;;;7.90;3.35;;;;;;;;;;5036251;28;20037;-75
2021/08/30 08:42:09;;;;;;;6.18;3.22;;;;;;;;;;5054371;28;20043;-73
2021/08/30 08:44:34;;;;;;;5.20;3.33;;;;;;;;;;5053941;28;20024;-75
2021/08/30 08:47:00;;;;;;;5.93;3.20;;;;;;;;;;5053384;28;20124;-76
2021/08/30 08:49:25;;;;;;;5.30;3.13;;;;;;;;;;5053816;28;20017;-75
2021/08/30 08:51:50;;;;;;;6.85;3.10;;;;;;;;;;5053911;28;20068;-75
2021/08/30 08:54:16;;;;;;;6.25;2.88;;;;;;;;;;5053828;28;20427;-75
2021/08/30 08:56:41;;;;;;;7.38;3.00;;;;;;;;;;5053696;28;20021;-76
2021/08/30 08:59:06;;;;;;;8.40;2.97;;;;;;;;;;5053177;28;20109;-76
2021/08/30 09:01:35;;;;;;;8.13;2.72;;;;;;;;;;5053720;28;20021;-73
2021/08/30 09:04:01;;;;;;;5.07;2.95;;;;;;;;;;5053628;28;20350;-75
2021/08/30 09:06:40;;;;;;;4.93;2.60;;;;;;;;;;5053995;28;20054;-73
2021/08/30 09:09:10;;;;;;;4.43;2.90;;;;;;;;;;5053575;28;20032;-74
2021/08/30 09:11:36;;;;;;;6.30;2.83;;;;;;;;;;5053997;28;20115;-73
2021/08/30 09:14:02;;;;;;;8.50;2.90;;;;;;;;;;5053287;28;20099;-73
2021/08/30 09:16:27;;;;;;;7.70;2.70;;;;;;;;;;5051883;28;20033;-74
2021/08/30 09:19:02;;;;;;;6.60;2.60;;;;;;;;;;5053653;28;20044;-76
2021/08/30 09:21:27;;;;;;;6.43;2.47;;;;;;;;;;5054122;28;20036;-75
2021/08/30 09:23:52;;;;;;;5.28;2.15;;;;;;;;;;5053165;28;20025;-75
2021/08/30 09:26:19;;;;;;;3.75;2.17;;;;;;;;;;5053393;28;20029;-73
2021/08/30 09:28:52;;;;;;;7.40;2.92;;;;;;;;;;5053066;28;20074;-74
2021/08/30 09:31:17;;;;;;;7.47;2.90;;;;;;;;;;5052995;28;20049;-76
2021/08/30 09:33:47;;;;;;;3.30;2.22;;;;;;;;;;5053075;28;20112;-76
2021/08/30 09:36:12;;;;;;;4.97;2.40;;;;;;;;;;5053283;28;20060;-73
2021/08/30 09:38:38;;;;;;;4.32;2.15;;;;;;;;;;5053423;28;20086;-77
2021/08/30 09:41:07;;;;;;;7.72;2.33;;;;;;;;;;5052911;28;20369;-74
2021/08/30 09:43:32;;;;;;;4.75;2.20;;;;;;;;;;5052753;28;20474;-76
2021/08/30 09:46:02;;;;;;;5.80;2.05;;;;;;;;;;5052715;28;20041;-76
2021/08/30 09:48:28;;;;;;;8.50;1.95;;;;;;;;;;5052780;28;20091;-76
2021/08/30 09:50:58;;;;;;;4.97;2.20;;;;;;;;;;5053092;28;20033;-76
2021/08/30 09:53:23;;;;;;;7.07;1.88;;;;;;;;;;5053344;28;20035;-76
2021/08/30 09:55:49;;;;;;;5.25;2.25;;;;;;;;;;5053013;28;20032;-76
2021/08/30 09:58:15;;;;;;;6.05;2.33;;;;;;;;;;5052430;28;20029;-76
2021/08/30 10:00:41;;;;;;;6.30;2.33;;;;;;;;;;5052047;28;20021;-76
2021/08/30 10:03:08;;;;;;;6.20;1.98;;;;;;;;;;5052639;28;20476;-76
2021/08/30 10:05:34;;;;;;;8.95;2.25;;;;;;;;;;5053332;28;20439;-76
2021/08/30 10:08:00;;;;;;;4.70;2.53;;;;;;;;;;5053055;28;20063;-76
2021/08/30 10:10:25;;;;;;;3.55;1.90;;;;;;;;;;5053148;28;20033;-76
2021/08/30 10:12:51;;;;;;;5.07;2.33;;;;;;;;;;5052661;28;20033;-77
2021/08/30 10:15:18;;;;;;;4.10;1.63;;;;;;;;;;5052391;28;20048;-76
2021/08/30 10:17:44;;;;;;;4.00;2.38;;;;;;;;;;5052611;28;20024;-77
2021/08/30 10:20:19;;;;;;;3.13;1.90;;;;;;;;;;5053306;28;20079;-76
2021/08/30 10:23:03;;;;;;;4.13;1.77;;;;;;;;;;5034589;28;20358;-76
2021/08/30 10:25:29;;;;;;;5.03;2.20;;;;;;;;;;5034748;28;20037;-75
2021/08/30 10:27:59;;;;;;;7.43;2.00;;;;;;;;;;5053905;28;20028;-76
2021/08/30 10:30:25;;;;;;;6.53;2.00;;;;;;;;;;5055997;28;20035;-76
2021/08/30 10:32:58;;;;;;;6.90;2.40;;;;;;;;;;5055786;28;20128;-76
2021/08/30 10:35:25;;;;;;;5.70;2.00;;;;;;;;;;5036776;28;20049;-76
2021/08/30 10:38:00;;;;;;;5.53;1.75;;;;;;;;;;5044498;28;20100;-76
2021/08/30 10:40:28;;;;;;;4.43;2.10;;;;;;;;;;5056650;28;20087;-76
2021/08/30 10:43:01;;;;;;;5.82;1.90;;;;;;;;;;5042859;28;20029;-76
2021/08/30 10:45:34;;;;;;;8.43;2.50;;;;;;;;;;5036703;28;20030;-76
2021/08/30 10:48:01;;;;;;;4.07;1.65;;;;;;;;;;5018941;28;20448;-76
2021/08/30 10:50:27;;;;;;;6.47;2.30;;;;;;;;;;5047892;28;20047;-76
2021/08/30 10:53:02;;;;;;;6.43;2.50;;;;;;;;;;5056768;28;20021;-76
2021/08/30 10:55:35;;;;;;;5.03;2.17;;;;;;;;;;5056375;28;20055;-76
2021/08/30 10:58:08;;;;;;;6.03;2.10;;;;;;;;;;5056412;28;20028;-76
2021/08/30 11:00:34;;;;;;;5.95;2.17;;;;;;;;;;5056782;28;20025;-76
2021/08/30 11:03:00;;;;;;;4.75;2.03;;;;;;;;;;5055970;28;20051;-75
2021/08/30 11:05:29;;;;;;;5.57;2.10;;;;;;;;;;5056331;28;20074;-76
2021/08/30 11:07:54;;;;;;;5.32;2.03;;;;;;;;;;5056309;28;20052;-77
2021/08/30 11:10:22;;;;;;;5.65;2.47;;;;;;;;;;5055866;28;20581;-76
2021/08/30 11:12:47;;;;;;;8.07;1.90;;;;;;;;;;5055879;28;20360;-76
2021/08/30 11:15:13;;;;;;;4.57;2.00;;;;;;;;;;5056056;28;20051;-75
2021/08/30 11:17:38;;;;;;;5.72;2.10;;;;;;;;;;5056135;28;20469;-76
2021/08/30 11:20:04;;;;;;;3.85;1.67;;;;;;;;;;5055756;28;20389;-75
2021/08/30 11:22:30;;;;;;;6.78;1.83;;;;;;;;;;5055566;28;20106;-76
2021/08/30 11:24:57;;;;;;;5.13;1.90;;;;;;;;;;5055470;28;20430;-74
2021/08/30 11:27:27;;;;;;;3.47;1.70;;;;;;;;;;5055831;28;20044;-76
2021/08/30 11:29:53;;;;;;;5.35;1.80;;;;;;;;;;5055523;28;20033;-75
2021/08/30 11:32:20;;;;;;;4.88;2.83;;;;;;;;;;5055386;28;20060;-75
2021/08/30 11:34:47;;;;;;;4.85;1.90;;;;;;;;;;5055621;28;20392;-76
2021/08/30 11:37:15;;;;;;;4.22;1.35;;;;;;;;;;5055713;28;20487;-76
2021/08/30 11:39:41;;;;;;;3.40;1.50;;;;;;;;;;5054361;28;20036;-76
2021/08/30 11:42:11;;;;;;;2.80;1.58;;;;;;;;;;5033373;28;20378;-76
2021/08/30 11:44:37;;;;;;;4.30;1.70;;;;;;;;;;5053402;28;20029;-75
2021/08/30 11:47:03;;;;;;;4.20;1.63;;;;;;;;;;5055330;28;20494;-76
2021/08/30 11:49:31;;;;;;;2.85;1.42;;;;;;;;;;5053703;28;20017;-77
2021/08/30 11:52:00;;;;;;;3.53;1.73;;;;;;;;;;5034357;28;20385;-77
2021/08/30 11:54:28;;;;;;;3.97;1.35;;;;;;;;;;5050582;28;20040;-77
2021/08/30 11:56:55;;;;;;;2.95;1.63;;;;;;;;;;5054315;28;20021;-76
2021/08/30 11:59:24;;;;;;;8.38;1.92;;;;;;;;;;5044824;28;20037;-77
2021/08/30 12:01:49;;;;;;;3.78;1.60;;;;;;;;;;5054151;28;20032;-76
2021/08/30 12:04:16;;;;;;;3.13;1.40;;;;;;;;;;5054727;28;20036;-76
2021/08/30 12:06:52;;;;;;;3.00;1.65;;;;;;;;;;5054196;28;20036;-77
2021/08/30 12:09:18;;;;;;;3.35;1.75;;;;;;;;;;5054461;28;20107;-77
2021/08/30 12:11:44;;;;;;;4.65;1.77;;;;;;;;;;5032652;28;20187;-78
2021/08/30 12:14:10;;;;;;;3.30;1.83;;;;;;;;;;5054178;28;20472;-77
2021/08/30 12:16:36;;;;;;;6.38;1.70;;;;;;;;;;5054051;28;20109;-76
2021/08/30 12:19:01;;;;;;;5.60;2.25;;;;;;;;;;5053528;28;20100;-77
2021/08/30 12:21:30;;;;;;;2.65;1.52;;;;;;;;;;5054923;28;20044;-76
2021/08/30 12:23:55;;;;;;;4.13;1.98;;;;;;;;;;5053927;28;20469;-76
2021/08/30 12:26:21;;;;;;;4.03;1.60;;;;;;;;;;5053888;28;20044;-76
2021/08/30 12:28:48;;;;;;;3.63;1.92;;;;;;;;;;5054162;28;20036;-77
2021/08/30 12:31:22;;;;;;;4.80;1.80;;;;;;;;;;5054360;28;20127;-76
2021/08/30 12:33:48;;;;;;;4.10;1.50;;;;;;;;;;5053520;28;20033;-77
2021/08/30 12:36:13;;;;;;;4.70;1.70;;;;;;;;;;5041927;28;20036;-76
2021/08/30 12:38:39;;;;;;;7.25;2.10;;;;;;;;;;5054451;28;20067;-77
2021/08/30 12:41:05;;;;;;;9.20;2.00;;;;;;;;;;5052745;28;20517;-76
2021/08/30 12:43:30;;;;;;;4.30;1.73;;;;;;;;;;5035457;28;20117;-76
2021/08/30 12:45:56;;;;;;;3.00;1.75;;;;;;;;;;5034509;28;20083;-76
2021/08/30 12:48:22;;;;;;;3.15;1.75;;;;;;;;;;5034385;28;20022;-76
2021/08/30 12:50:48;;;;;;;3.92;2.10;;;;;;;;;;5049380;28;20033;-78
2021/08/30 12:53:14;;;;;;;2.85;1.73;;;;;;;;;;5053377;28;20028;-76
2021/08/30 12:55:39;;;;;;;4.50;1.90;;;;;;;;;;5052339;28;20049;-76
2021/08/30 12:58:06;;;;;;;3.15;1.77;;;;;;;;;;5053723;28;20044;-76
2021/08/30 13:00:31;;;;;;;3.70;1.73;;;;;;;;;;5053628;28;20032;-76
2021/08/30 13:02:57;;;;;;;3.72;1.75;;;;;;;;;;5053809;28;20029;-76
2021/08/30 13:05:23;;;;;;;4.93;1.95;;;;;;;;;;5053783;28;20036;-76
2021/08/30 13:07:49;;;;;;;6.25;2.45;;;;;;;;;;5053821;28;20108;-76
2021/08/30 13:10:15;;;;;;;30.17;6.55;;;;;;;;;;5053780;28;20159;-76
2021/08/30 13:12:40;;;;;;;5.35;2.03;;;;;;;;;;5053608;28;20033;-76
2021/08/30 13:15:06;;;;;;;40.20;6.25;;;;;;;;;;5037060;28;20044;-76
2021/08/30 13:17:35;;;;;;;6.63;2.15;;;;;;;;;;5053999;28;20029;-76
2021/08/30 13:20:00;;;;;;;3.97;2.58;;;;;;;;;;5053599;28;20036;-76
2021/08/30 13:22:25;;;;;;;5.88;2.10;;;;;;;;;;5053863;28;20017;-76
2021/08/30 13:24:51;;;;;;;5.40;2.10;;;;;;;;;;5053752;28;20029;-77
2021/08/30 13:27:16;;;;;;;5.85;2.28;;;;;;;;;;5053834;28;20373;-76
2021/08/30 13:29:41;;;;;;;8.63;3.42;;;;;;;;;;5053832;28;20082;-77
2021/08/30 13:32:07;;;;;;;9.13;2.50;;;;;;;;;;5052968;28;20045;-76
2021/08/30 13:34:33;;;;;;;4.78;1.83;;;;;;;;;;5053375;28;20095;-76
2021/08/30 13:36:58;;;;;;;8.27;2.92;;;;;;;;;;5053340;28;20054;-76
2021/08/30 13:39:23;;;;;;;7.70;3.70;;;;;;;;;;5053666;28;20113;-76
2021/08/30 13:41:48;;;;;;;7.78;3.25;;;;;;;;;;5053247;28;20079;-78
2021/08/30 13:44:14;;;;;;;5.30;2.83;;;;;;;;;;5053404;28;20453;-76
2021/08/30 13:46:40;;;;;;;3.95;2.60;;;;;;;;;;5052460;28;20484;-76
2021/08/30 13:49:05;;;;;;;8.43;3.15;;;;;;;;;;5052776;28;20040;-76
2021/08/30 13:51:30;;;;;;;7.80;2.85;;;;;;;;;;5052374;28;20024;-76
2021/08/30 13:53:56;;;;;;;8.32;3.95;;;;;;;;;;5052903;28;20041;-76
2021/08/30 13:56:21;;;;;;;4.80;3.15;;;;;;;;;;5048089;28;20044;-76
2021/08/30 13:58:46;;;;;;;10.63;4.30;;;;;;;;;;5051030;28;20032;-76
2021/08/30 14:01:11;;;;;;;6.53;4.00;;;;;;;;;;5052288;28;20025;-76
2021/08/30 14:03:37;;;;;;;6.90;3.35;;;;;;;;;;5057951;28;20049;-76
2021/08/30 14:06:02;;;;;;;7.03;3.80;;;;;;;;;;5058442;28;20092;-75
2021/08/30 14:08:27;;;;;;;6.28;3.63;;;;;;;;;;5059535;28;20103;-76
2021/08/30 14:10:52;;;;;;;6.93;3.40;;;;;;;;;;5059559;28;20513;-76
2021/08/30 14:13:18;;;;;;;8.77;3.80;;;;;;;;;;5059637;28;20039;-75
2021/08/30 14:15:44;;;;;;;10.82;4.88;;;;;;;;;;5059618;28;20392;-76
2021/08/30 14:18:10;;;;;;;5.47;3.50;;;;;;;;;;5059709;28;20087;-76
2021/08/30 14:20:35;;;;;;;6.20;3.35;;;;;;;;;;5059871;28;20469;-76
2021/08/30 14:23:00;;;;;;;8.82;3.90;;;;;;;;;;5059846;28;20033;-76
2021/08/30 14:25:26;;;;;;;7.30;3.83;;;;;;;;;;5059409;28;20040;-76
2021/08/30 14:27:51;;;;;;;8.20;4.47;;;;;;;;;;5059548;28;20049;-77
2021/08/30 14:30:17;;;;;;;11.32;4.18;;;;;;;;;;5059467;28;20025;-76
2021/08/30 14:32:42;;;;;;;7.15;3.20;;;;;;;;;;5059858;28;20053;-76
2021/08/30 14:35:08;;;;;;;6.25;4.03;;;;;;;;;;5059572;28;20090;-76
2021/08/30 14:37:33;;;;;;;9.73;4.20;;;;;;;;;;5059498;28;20040;-76